createdAt,value
2022-08-16T00:01:25.033Z,1.70
2022-08-16T00:04:18.476Z,2.13
2022-08-16T00:07:09.355Z,1.75
2022-08-16T00:10:01.235Z,2.35
2022-08-16T00:12:51.386Z,1.83
2022-08-16T00:15:51.740Z,1.85
2022-08-16T00:18:43.994Z,1.75
2022-08-16T00:21:33.942Z,1.73
2022-08-16T00:24:31.392Z,2.00
2022-08-16T00:27:24.185Z,1.80
2022-08-16T00:30:28.513Z,1.80
2022-08-16T00:33:18.613Z,2.13
2022-08-16T00:36:08.900Z,1.95
2022-08-16T00:38:57.804Z,1.90
2022-08-16T00:41:49.745Z,1.92
2022-08-16T00:44:42.520Z,1.70
2022-08-16T00:47:31.750Z,2.00
2022-08-16T00:50:36.032Z,1.77
2022-08-16T00:53:25.950Z,1.95
2022-08-16T00:56:57.131Z,1.95
2022-08-16T00:59:33.008Z,2.08
2022-08-16T01:02:31.504Z,2.08
2022-08-16T01:05:22.792Z,2.08
2022-08-16T01:08:35.408Z,1.92
2022-08-16T01:11:27.112Z,2.35
2022-08-16T01:14:25.082Z,2.03
2022-08-16T01:17:20.883Z,2.00
2022-08-16T01:20:23.805Z,2.33
2022-08-16T01:23:18.319Z,1.80
2022-08-16T01:26:33.781Z,2.40
2022-08-16T01:29:24.358Z,2.10
2022-08-16T01:32:38.987Z,2.13
2022-08-16T01:35:35.371Z,2.60
2022-08-16T01:38:33.256Z,2.20
2022-08-16T01:41:26.572Z,2.10
2022-08-16T01:44:21.055Z,1.85
2022-08-16T01:47:10.774Z,2.20
2022-08-16T01:50:42.407Z,2.40
2022-08-16T01:53:11.936Z,2.10
2022-08-16T01:56:27.675Z,1.95
2022-08-16T01:59:17.850Z,1.83
2022-08-16T02:02:26.575Z,2.13
2022-08-16T02:05:16.592Z,2.08
2022-08-16T02:08:08.727Z,2.30
2022-08-16T02:11:17.792Z,1.92
2022-08-16T02:14:18.231Z,2.20
2022-08-16T02:17:12.871Z,2.22
2022-08-16T02:20:11.655Z,2.35
2022-08-16T02:23:05.900Z,2.05
2022-08-16T02:25:54.936Z,2.10
2022-08-16T02:28:47.294Z,2.33
2022-08-16T02:32:04.577Z,2.25
2022-08-16T02:34:47.627Z,2.30
2022-08-16T02:37:52.788Z,2.40
2022-08-16T02:40:45.406Z,2.28
2022-08-16T02:43:36.316Z,2.03
2022-08-16T02:46:30.164Z,2.05
2022-08-16T02:49:58.542Z,2.22
2022-08-16T02:52:35.103Z,2.33
2022-08-16T02:55:41.321Z,2.40
2022-08-16T02:58:32.617Z,2.20
2022-08-16T03:01:37.106Z,2.42
2022-08-16T03:04:51.934Z,2.38
2022-08-16T03:07:50.541Z,2.20
2022-08-16T03:10:41.361Z,2.28
2022-08-16T03:13:40.002Z,2.50
2022-08-16T03:16:38.470Z,2.30
2022-08-16T03:19:48.068Z,2.70
2022-08-16T03:22:47.211Z,2.30
2022-08-16T03:25:41.058Z,2.67
2022-08-16T03:28:34.630Z,2.28
2022-08-16T03:31:25.303Z,2.20
2022-08-16T03:34:24.097Z,2.30
2022-08-16T03:37:12.974Z,2.10
2022-08-16T03:40:06.459Z,2.40
2022-08-16T03:43:19.231Z,2.28
2022-08-16T03:46:10.804Z,2.38
2022-08-16T03:49:00.561Z,2.50
2022-08-16T03:51:52.090Z,2.10
2022-08-16T03:54:53.408Z,2.00
2022-08-16T03:57:52.293Z,2.22
2022-08-16T04:00:43.210Z,2.50
2022-08-16T04:03:37.726Z,2.10
2022-08-16T04:06:26.918Z,1.83
2022-08-16T04:09:16.639Z,2.33
2022-08-16T04:12:10.363Z,2.58
2022-08-16T04:15:07.811Z,2.42
2022-08-16T04:18:01.998Z,2.20
2022-08-16T04:20:53.647Z,2.60
2022-08-16T04:23:48.346Z,2.50
2022-08-16T04:26:37.796Z,2.17
2022-08-16T04:29:46.126Z,2.30
2022-08-16T04:32:40.983Z,2.45
2022-08-16T04:35:34.075Z,2.30
2022-08-16T04:38:24.263Z,2.63
2022-08-16T04:41:14.745Z,2.47
2022-08-16T04:44:32.614Z,2.33
2022-08-16T04:47:21.390Z,2.47
2022-08-16T04:50:19.064Z,2.70
2022-08-16T04:53:22.880Z,2.90
2022-08-16T04:56:16.483Z,2.75
2022-08-16T04:59:08.324Z,2.67
2022-08-16T05:01:58.509Z,2.45
2022-08-16T05:04:48.470Z,2.72
2022-08-16T05:07:39.116Z,2.70
2022-08-16T05:10:47.926Z,2.58
2022-08-16T05:13:42.076Z,2.17
2022-08-16T05:16:34.824Z,2.47
2022-08-16T05:19:27.963Z,2.40
2022-08-16T05:22:36.336Z,2.83
2022-08-16T05:25:41.340Z,2.13
2022-08-16T05:28:37.584Z,2.38
2022-08-16T05:31:30.734Z,2.45
2022-08-16T05:34:22.274Z,2.60
2022-08-16T05:37:16.120Z,2.25
2022-08-16T05:40:13.152Z,2.65
2022-08-16T05:43:05.212Z,2.70
2022-08-16T05:45:55.927Z,2.70
2022-08-16T05:48:46.158Z,2.33
2022-08-16T05:51:46.029Z,2.45
2022-08-16T05:54:44.383Z,2.70
2022-08-16T05:57:36.156Z,2.70
2022-08-16T06:00:26.970Z,2.58
2022-08-16T06:03:17.784Z,2.65
2022-08-16T06:06:28.169Z,2.30
2022-08-16T06:09:19.910Z,2.63
2022-08-16T06:12:09.876Z,2.38
2022-08-16T06:15:04.306Z,2.58
2022-08-16T06:18:00.513Z,2.50
2022-08-16T06:20:55.166Z,2.40
2022-08-16T06:23:48.620Z,2.40
2022-08-16T06:26:44.992Z,2.65
2022-08-16T06:29:50.292Z,2.58
2022-08-16T06:32:42.888Z,3.05
2022-08-16T06:35:15.764Z,2.13
2022-08-16T06:37:51.269Z,2.40
2022-08-16T06:40:22.221Z,2.22
2022-08-16T06:43:03.080Z,2.63
2022-08-16T06:45:43.696Z,2.45
2022-08-16T06:48:21.234Z,2.47
2022-08-16T06:51:05.552Z,2.10
2022-08-16T06:53:36.397Z,2.33
2022-08-16T06:56:14.929Z,2.50
2022-08-16T06:59:03.502Z,2.40
2022-08-16T07:01:53.684Z,2.60
2022-08-16T07:04:32.639Z,2.45
2022-08-16T07:07:11.897Z,2.50
2022-08-16T07:09:44.570Z,2.55
2022-08-16T07:12:15.355Z,2.33
2022-08-16T07:14:47.869Z,2.42
2022-08-16T07:17:21.853Z,2.50
2022-08-16T07:20:29.377Z,2.70
2022-08-16T07:22:59.015Z,2.65
2022-08-16T07:25:34.276Z,2.45
2022-08-16T07:28:12.111Z,2.70
2022-08-16T07:30:49.970Z,2.92
2022-08-16T07:33:52.776Z,2.95
2022-08-16T07:36:21.639Z,2.83
2022-08-16T07:38:55.583Z,2.90
2022-08-16T07:41:24.567Z,2.70
2022-08-16T07:44:00.550Z,2.67
2022-08-16T07:46:38.947Z,2.50
2022-08-16T07:49:19.371Z,2.50
2022-08-16T07:51:48.545Z,2.20
2022-08-16T07:54:32.277Z,2.67
2022-08-16T07:57:11.333Z,2.42
2022-08-16T07:59:45.664Z,2.40
2022-08-16T08:02:20.290Z,2.28
2022-08-16T08:04:54.873Z,2.20
2022-08-16T08:07:28.106Z,2.42
2022-08-16T08:09:59.271Z,2.47
2022-08-16T08:12:31.557Z,2.75
2022-08-16T08:15:05.889Z,2.38
2022-08-16T08:17:43.986Z,2.15
2022-08-16T08:20:28.309Z,2.50
2022-08-16T08:23:01.613Z,2.50
2022-08-16T08:25:54.905Z,2.45
2022-08-16T08:28:26.731Z,2.10
2022-08-16T08:31:02.985Z,2.65
2022-08-16T08:33:36.535Z,2.25
2022-08-16T08:36:11.908Z,2.15
2022-08-16T08:38:53.429Z,2.53
2022-08-16T08:41:29.619Z,2.33
2022-08-16T08:44:01.281Z,2.78
2022-08-16T08:47:00.151Z,2.78
2022-08-16T08:49:50.295Z,2.33
2022-08-16T08:52:33.683Z,2.40
2022-08-16T08:55:10.723Z,2.30
2022-08-16T08:57:43.829Z,2.10
2022-08-16T09:00:31.883Z,2.25
2022-08-16T09:03:19.132Z,2.40
2022-08-16T09:05:51.960Z,2.20
2022-08-16T09:08:22.578Z,2.60
2022-08-16T09:11:03.215Z,2.35
2022-08-16T09:13:34.527Z,2.38
2022-08-16T09:16:05.152Z,2.22
2022-08-16T09:18:35.761Z,2.28
2022-08-16T09:21:09.531Z,2.38
2022-08-16T09:23:39.757Z,2.45
2022-08-16T09:26:44.066Z,2.40
2022-08-16T09:29:15.825Z,2.17
2022-08-16T09:31:53.464Z,2.70
2022-08-16T09:34:22.280Z,2.25
2022-08-16T09:36:54.579Z,2.10
2022-08-16T09:39:23.981Z,2.28
2022-08-16T09:41:54.346Z,2.30
2022-08-16T09:45:09.735Z,2.45
2022-08-16T09:47:14.819Z,2.38
2022-08-16T09:49:43.628Z,2.50
2022-08-16T09:52:22.379Z,2.30
2022-08-16T09:54:51.742Z,2.30
2022-08-16T09:57:20.486Z,2.20
2022-08-16T09:59:55.999Z,2.13
2022-08-16T10:02:27.860Z,2.38
2022-08-16T10:04:58.560Z,2.28
2022-08-16T10:07:44.399Z,2.45
2022-08-16T10:10:30.387Z,2.20
2022-08-16T10:13:16.344Z,2.38
2022-08-16T10:15:55.680Z,2.17
2022-08-16T10:19:02.011Z,2.50
2022-08-16T10:21:17.315Z,2.30
2022-08-16T10:23:48.595Z,2.42
2022-08-16T10:27:16.244Z,2.10
2022-08-16T10:29:06.900Z,2.35
2022-08-16T10:31:44.241Z,2.08
2022-08-16T10:34:30.999Z,2.20
2022-08-16T10:37:01.966Z,1.98
2022-08-16T10:39:40.547Z,2.10
2022-08-16T10:42:13.338Z,1.95
2022-08-16T10:44:42.720Z,2.42
2022-08-16T10:47:24.377Z,2.05
2022-08-16T10:49:53.014Z,2.33
2022-08-16T10:52:24.332Z,2.20
2022-08-16T10:57:43.225Z,2.45
2022-08-16T11:00:22.307Z,2.30
2022-08-16T11:02:57.740Z,2.20
2022-08-16T11:08:31.274Z,1.90
2022-08-16T11:11:11.824Z,2.03
2022-08-16T11:14:11.223Z,1.98
2022-08-16T11:19:28.262Z,2.00
2022-08-16T11:22:23.158Z,1.70
2022-08-16T11:25:11.955Z,2.10
2022-08-16T11:27:37.595Z,2.20
2022-08-16T11:30:12.283Z,1.90
2022-08-16T11:32:48.774Z,1.83
2022-08-16T11:35:43.416Z,1.60
2022-08-16T11:38:46.897Z,2.05
2022-08-16T11:41:03.985Z,1.45
2022-08-16T11:43:34.971Z,1.90
2022-08-16T11:46:45.100Z,2.00
2022-08-16T11:48:57.363Z,1.83
2022-08-16T11:51:27.377Z,1.85
2022-08-16T11:53:57.236Z,2.20
2022-08-16T11:56:39.732Z,1.58
2022-08-16T11:59:16.007Z,1.70
2022-08-16T12:01:59.182Z,1.90
2022-08-16T12:04:29.199Z,1.73
2022-08-16T12:07:00.202Z,2.03
2022-08-16T12:09:30.616Z,1.73
2022-08-16T12:12:03.091Z,1.60
2022-08-16T12:14:35.529Z,1.95
2022-08-16T12:17:08.500Z,2.25
2022-08-16T12:19:37.135Z,1.88
2022-08-16T12:22:19.047Z,1.60
2022-08-16T12:24:52.126Z,1.80
2022-08-16T12:27:24.522Z,1.77
2022-08-16T12:29:54.025Z,1.95
2022-08-16T12:32:38.287Z,1.80
2022-08-16T12:35:14.387Z,1.90
2022-08-16T12:37:46.262Z,1.73
2022-08-16T12:40:25.009Z,1.80
2022-08-16T12:42:59.718Z,2.00
2022-08-16T12:45:31.792Z,1.90
2022-08-16T12:48:35.034Z,1.77
2022-08-16T12:51:10.902Z,1.98
2022-08-16T12:53:52.027Z,2.03
2022-08-16T12:56:22.167Z,1.75
2022-08-16T12:58:55.919Z,2.00
2022-08-16T13:01:29.886Z,1.70
2022-08-16T13:04:20.800Z,1.70
2022-08-16T13:06:50.411Z,1.92
2022-08-16T13:09:26.022Z,2.20
2022-08-16T13:12:04.351Z,1.75
2022-08-16T13:14:38.879Z,2.38
2022-08-16T13:17:14.205Z,1.80
2022-08-16T13:25:20.882Z,1.92
2022-08-16T13:28:02.308Z,1.67
2022-08-16T13:30:41.162Z,1.80
2022-08-16T13:33:13.395Z,2.00
2022-08-16T13:35:45.363Z,2.15
2022-08-16T13:38:24.360Z,2.00
2022-08-16T13:40:57.676Z,2.00
2022-08-16T13:43:27.281Z,1.90
2022-08-16T13:45:56.456Z,2.03
2022-08-16T13:48:25.945Z,1.80
2022-08-16T13:51:00.570Z,1.77
2022-08-16T13:53:32.972Z,2.03
2022-08-16T13:56:02.746Z,1.80
2022-08-16T13:58:36.677Z,2.10
2022-08-16T14:01:09.763Z,2.33
2022-08-16T14:03:40.044Z,1.90
2022-08-16T14:06:10.989Z,2.00
2022-08-16T14:08:42.211Z,1.80
2022-08-16T14:11:14.412Z,1.92
2022-08-16T14:13:44.638Z,2.13
2022-08-16T14:16:23.478Z,1.58
2022-08-16T14:18:53.626Z,2.10
2022-08-16T14:21:23.876Z,1.80
2022-08-16T14:23:53.242Z,1.98
2022-08-16T14:26:24.983Z,1.80
2022-08-16T14:28:54.610Z,1.83
2022-08-16T14:31:27.088Z,1.80
2022-08-16T14:33:55.948Z,1.98
2022-08-16T14:36:29.518Z,1.85
2022-08-16T14:38:59.385Z,2.00
2022-08-16T14:41:29.998Z,2.30
2022-08-16T14:43:59.129Z,2.13
2022-08-16T14:46:27.534Z,1.90
2022-08-16T14:48:56.499Z,1.90
2022-08-16T14:51:27.391Z,2.00
2022-08-16T14:53:57.382Z,1.98
2022-08-16T14:56:38.976Z,1.80
2022-08-16T14:59:14.224Z,2.00
2022-08-16T15:01:58.841Z,1.88
2022-08-16T15:04:39.653Z,2.10
2022-08-16T15:07:18.253Z,2.08
2022-08-16T15:10:00.400Z,2.00
2022-08-16T15:12:33.993Z,2.10
2022-08-16T15:15:12.466Z,2.08
2022-08-16T15:17:54.213Z,1.85
2022-08-16T15:20:29.509Z,2.10
2022-08-16T15:22:59.853Z,1.90
2022-08-16T15:25:32.192Z,2.20
2022-08-16T15:28:04.762Z,1.95
2022-08-16T15:30:57.082Z,2.05
2022-08-16T15:33:27.771Z,1.70
2022-08-16T15:35:58.370Z,2.17
2022-08-16T15:38:43.585Z,2.05
2022-08-16T15:41:49.938Z,1.67
2022-08-16T15:44:22.170Z,1.90
2022-08-16T15:46:58.500Z,2.10
2022-08-16T15:49:34.641Z,2.05
2022-08-16T15:52:10.447Z,1.95
2022-08-16T15:54:53.678Z,2.15
2022-08-16T15:57:25.468Z,2.00
2022-08-16T15:59:55.646Z,1.90
2022-08-16T16:02:30.543Z,1.95
2022-08-16T16:05:02.376Z,2.03
2022-08-16T16:07:34.033Z,1.95
2022-08-16T16:10:13.274Z,1.98
2022-08-16T16:12:51.285Z,2.55
2022-08-16T16:15:26.113Z,2.20
2022-08-16T16:18:09.446Z,2.17
2022-08-16T16:20:42.284Z,2.00
2022-08-16T16:23:12.492Z,1.88
2022-08-16T16:25:43.808Z,2.13
2022-08-16T16:29:04.973Z,2.20
2022-08-16T16:31:08.251Z,2.40
2022-08-16T16:33:41.930Z,1.83
2022-08-16T16:36:15.357Z,2.20
2022-08-16T16:38:47.627Z,1.90
2022-08-16T16:41:20.476Z,2.00
2022-08-16T16:43:53.326Z,2.00
2022-08-16T16:46:42.063Z,2.00
2022-08-16T16:49:15.095Z,2.05
2022-08-16T16:51:49.843Z,1.98
2022-08-16T16:54:27.862Z,2.00
2022-08-16T16:56:58.764Z,2.28
2022-08-16T16:59:28.474Z,2.08
2022-08-16T17:02:41.232Z,2.15
2022-08-16T17:04:49.818Z,2.63
2022-08-16T17:07:24.104Z,2.05
2022-08-16T17:09:53.748Z,2.00
2022-08-16T17:12:25.479Z,2.13
2022-08-16T17:15:12.673Z,2.20
2022-08-16T17:17:59.811Z,1.95
2022-08-16T17:20:31.153Z,2.30
2022-08-16T17:23:01.190Z,2.20
2022-08-16T17:25:36.636Z,2.10
2022-08-16T17:28:58.651Z,2.10
2022-08-16T17:30:58.504Z,2.20
2022-08-16T17:33:36.927Z,2.00
2022-08-16T17:36:36.590Z,2.00
2022-08-16T17:39:07.979Z,1.92
2022-08-16T17:41:38.323Z,2.28
2022-08-16T17:44:08.655Z,2.30
2022-08-16T17:46:51.404Z,1.95
2022-08-16T17:49:21.984Z,2.03
2022-08-16T17:51:51.731Z,1.95
2022-08-16T17:54:30.811Z,2.20
2022-08-16T17:57:00.420Z,1.95
2022-08-16T17:59:29.856Z,2.03
2022-08-16T18:01:59.330Z,1.92
2022-08-16T18:04:49.861Z,2.10
2022-08-16T18:07:17.859Z,2.10
2022-08-16T18:09:46.256Z,2.10
2022-08-16T18:12:19.858Z,1.80
2022-08-16T18:15:12.055Z,2.05
2022-08-16T18:17:40.956Z,2.20
2022-08-16T18:20:33.264Z,2.30
2022-08-16T18:23:07.975Z,2.33
2022-08-16T18:25:37.418Z,2.22
2022-08-16T18:28:06.701Z,2.25
2022-08-16T18:30:35.056Z,2.20
2022-08-16T18:33:03.556Z,1.92
2022-08-16T18:35:32.111Z,2.28
2022-08-16T18:38:00.606Z,2.03
2022-08-16T18:40:31.867Z,2.25
2022-08-16T18:43:01.980Z,2.72
2022-08-16T18:45:35.321Z,2.25
2022-08-16T18:48:06.636Z,2.40
2022-08-16T18:50:59.632Z,2.40
2022-08-16T18:53:26.887Z,2.20
2022-08-16T18:56:00.844Z,2.40
2022-08-16T18:58:31.037Z,2.33
2022-08-16T19:01:00.258Z,2.15
2022-08-16T19:03:31.164Z,2.08
2022-08-16T19:06:02.350Z,2.13
2022-08-16T19:08:32.673Z,2.17
2022-08-16T19:11:02.893Z,2.03
2022-08-16T19:13:33.407Z,2.75
2022-08-16T19:16:04.301Z,2.17
2022-08-16T19:18:36.565Z,2.40
2022-08-16T19:21:06.738Z,2.22
2022-08-16T19:23:37.426Z,2.75
2022-08-16T19:26:10.211Z,2.22
2022-08-16T19:28:58.306Z,2.20
2022-08-16T19:31:31.491Z,2.40
2022-08-16T19:34:00.642Z,2.33
2022-08-16T19:36:35.988Z,2.38
2022-08-16T19:39:08.821Z,2.50
2022-08-16T19:41:42.020Z,2.17
2022-08-16T19:44:11.348Z,2.50
2022-08-16T19:46:41.746Z,2.50
2022-08-16T19:49:10.196Z,2.17
2022-08-16T19:51:45.446Z,2.88
2022-08-16T19:54:13.896Z,2.88
2022-08-16T19:56:43.704Z,2.60
2022-08-16T19:59:19.238Z,2.78
2022-08-16T20:01:51.900Z,2.83
2022-08-16T20:04:21.642Z,2.60
2022-08-16T20:06:50.491Z,3.00
2022-08-16T20:09:22.457Z,2.70
2022-08-16T20:11:53.510Z,3.35
2022-08-16T20:14:25.422Z,2.90
2022-08-16T20:16:56.827Z,3.10
2022-08-16T20:19:27.117Z,2.70
2022-08-16T20:22:01.721Z,3.05
2022-08-16T20:24:34.596Z,2.75
2022-08-16T20:27:07.883Z,2.95
2022-08-16T20:29:37.706Z,3.00
2022-08-16T20:32:08.506Z,2.80
2022-08-16T20:34:37.476Z,2.80
2022-08-16T20:37:06.340Z,3.35
2022-08-16T20:39:35.064Z,2.97
2022-08-16T20:42:04.836Z,3.20
2022-08-16T20:44:33.959Z,3.20
2022-08-16T20:47:02.343Z,2.95
2022-08-16T20:49:30.751Z,3.72
2022-08-16T20:51:59.837Z,2.60
2022-08-16T20:54:29.872Z,2.67
2022-08-16T20:56:58.804Z,2.78
2022-08-16T20:59:28.874Z,2.92
2022-08-16T21:01:59.570Z,3.20
2022-08-16T21:04:30.115Z,2.65
2022-08-16T21:06:59.817Z,2.33
2022-08-16T21:09:32.406Z,3.30
2022-08-16T21:12:03.491Z,3.22
2022-08-16T21:14:34.390Z,3.25
2022-08-16T21:17:03.863Z,2.90
2022-08-16T21:19:33.870Z,3.05
2022-08-16T21:22:12.354Z,3.10
2022-08-16T21:24:41.083Z,3.25
2022-08-16T21:27:09.772Z,3.38
2022-08-16T21:29:43.420Z,2.90
2022-08-16T21:32:14.814Z,2.80
2022-08-16T21:34:43.678Z,3.40
2022-08-16T21:37:15.471Z,3.42
2022-08-16T21:39:45.788Z,2.80
2022-08-16T21:42:17.280Z,3.17
2022-08-16T21:44:47.044Z,2.92
2022-08-16T21:47:16.251Z,2.92
2022-08-16T21:49:44.623Z,3.00
2022-08-16T21:52:26.464Z,3.15
2022-08-16T21:54:56.900Z,2.88
2022-08-16T21:57:26.107Z,3.22
2022-08-16T21:59:56.932Z,3.47
2022-08-16T22:02:35.762Z,2.90
2022-08-16T22:05:07.915Z,3.30
2022-08-16T22:07:36.375Z,3.17
2022-08-16T22:11:06.899Z,3.08
2022-08-16T22:12:55.032Z,3.67
2022-08-16T22:15:26.062Z,3.22
2022-08-16T22:17:56.567Z,3.78
2022-08-16T22:20:26.441Z,3.47
2022-08-16T22:23:06.985Z,3.63
2022-08-16T22:25:35.771Z,3.35
2022-08-16T22:28:05.267Z,3.67
2022-08-16T22:30:35.852Z,3.90
2022-08-16T22:33:09.290Z,3.03
2022-08-16T22:35:42.808Z,3.45
2022-08-16T22:38:55.527Z,3.30
2022-08-16T22:41:00.871Z,3.85
2022-08-16T22:43:30.283Z,3.85
2022-08-16T22:46:00.637Z,4.03
2022-08-16T22:48:29.014Z,4.03
2022-08-16T22:50:58.247Z,4.05
2022-08-16T22:53:26.922Z,3.60
2022-08-16T22:55:57.198Z,3.55
2022-08-16T22:58:34.202Z,3.75
2022-08-16T23:01:07.733Z,3.72
2022-08-16T23:03:37.610Z,3.75
2022-08-16T23:06:07.503Z,3.55
2022-08-16T23:08:40.556Z,3.45
2022-08-16T23:11:12.444Z,3.58
2022-08-16T23:13:52.795Z,3.70
2022-08-16T23:16:32.373Z,3.50
2022-08-16T23:19:05.685Z,3.60
2022-08-16T23:21:37.435Z,3.63
2022-08-16T23:24:07.113Z,3.40
2022-08-16T23:26:46.231Z,3.47
2022-08-16T23:29:24.367Z,3.80
2022-08-16T23:31:59.859Z,3.80
2022-08-16T23:34:29.790Z,4.20
2022-08-16T23:36:58.202Z,3.67
2022-08-16T23:39:27.363Z,4.00
2022-08-16T23:41:55.814Z,3.53
2022-08-16T23:44:56.922Z,3.85
2022-08-16T23:47:14.226Z,3.67
2022-08-16T23:49:56.418Z,3.92
2022-08-16T23:52:54.638Z,3.70
2022-08-16T23:55:20.370Z,3.80
2022-08-16T23:57:49.047Z,3.72
